createdAt,value
2022-12-06T04:49:40.768Z,98066.91
2022-12-06T04:52:55.938Z,98118.94
2022-12-06T04:56:02.134Z,98137.41
2022-12-06T04:59:11.729Z,98156.53
2022-12-06T05:02:19.550Z,98093.28
2022-12-06T05:09:01.492Z,98021.19
2022-12-06T05:12:57.141Z,98037.59
2022-12-06T05:16:47.505Z,98117.16
2022-12-06T05:20:31.673Z,98138.97
2022-12-06T05:23:44.294Z,98089.44
2022-12-06T05:27:29.562Z,98006.34
2022-12-06T05:30:53.402Z,98045.84
2022-12-06T05:33:59.225Z,98081.50
2022-12-06T05:37:21.417Z,98082.47
2022-12-06T05:40:31.133Z,98069.19
2022-12-06T05:43:39.617Z,98009.06
2022-12-06T05:51:07.805Z,98124.38
2022-12-06T05:54:17.369Z,98106.78
2022-12-06T05:57:41.233Z,98050.50
2022-12-06T06:00:53.626Z,98060.31
2022-12-06T06:03:59.270Z,98066.06
2022-12-06T06:07:06.961Z,98040.47
2022-12-06T06:10:14.455Z,98051.31
2022-12-06T06:13:24.598Z,98093.13
2022-12-06T06:16:30.347Z,98023.03
2022-12-06T06:19:36.834Z,98047.78
2022-12-06T06:22:44.849Z,98080.69
2022-12-06T06:25:52.853Z,98049.59
2022-12-06T06:29:09.893Z,98075.38
2022-12-06T06:32:17.138Z,98029.56
2022-12-06T06:35:29.773Z,98051.53
2022-12-06T06:38:41.546Z,97966.69
2022-12-06T06:41:47.493Z,98060.66
2022-12-06T06:44:57.491Z,98072.56
2022-12-06T06:48:03.122Z,98040.31
2022-12-06T06:51:13.023Z,98008.47
2022-12-06T06:54:18.576Z,98008.06
2022-12-06T06:57:25.217Z,98038.59
2022-12-06T07:00:33.393Z,98048.84
2022-12-06T07:03:39.875Z,98031.06
2022-12-06T07:06:47.207Z,98030.34
2022-12-06T07:09:53.797Z,98021.69
2022-12-06T07:12:59.350Z,97994.03
2022-12-06T07:16:15.652Z,98045.66
2022-12-06T07:19:21.528Z,98002.22
2022-12-06T07:22:28.330Z,97985.00
2022-12-06T07:25:34.941Z,98019.03
2022-12-06T07:28:44.330Z,97981.06
2022-12-06T07:31:52.606Z,97985.16
2022-12-06T07:34:59.110Z,97970.00
2022-12-06T07:38:04.936Z,97936.00
2022-12-06T07:41:28.492Z,98019.72
2022-12-06T07:44:46.673Z,98025.59
2022-12-06T07:47:56.267Z,97983.78
2022-12-06T07:51:01.845Z,97971.66
2022-12-06T07:54:08.487Z,98044.44
2022-12-06T07:57:14.011Z,97984.19
2022-12-06T08:00:21.617Z,98063.16
2022-12-06T08:03:29.806Z,97992.09
2022-12-06T08:06:39.185Z,97987.47
2022-12-06T08:09:45.343Z,98027.59
2022-12-06T08:12:51.891Z,98059.06
2022-12-06T08:15:57.633Z,98056.75
2022-12-06T08:19:06.773Z,97984.25
2022-12-06T08:22:12.408Z,97968.56
2022-12-06T08:25:18.974Z,98037.56
2022-12-06T08:28:24.756Z,98053.97
2022-12-06T08:31:34.923Z,98032.94
2022-12-06T08:34:43.954Z,98008.88
2022-12-06T08:41:33.955Z,98011.44
2022-12-06T08:48:47.650Z,97949.69
2022-12-06T08:56:04.689Z,97970.66
2022-12-06T08:59:13.234Z,97966.69
2022-12-06T09:02:19.049Z,97980.47
2022-12-06T09:05:28.753Z,97977.44
2022-12-06T09:08:36.730Z,97954.66
2022-12-06T09:11:45.420Z,98016.78
2022-12-06T09:14:54.766Z,97951.63
2022-12-06T09:18:18.826Z,98038.47
2022-12-06T09:25:45.232Z,98027.91
2022-12-06T09:29:05.182Z,98027.72
2022-12-06T09:51:50.999Z,98006.09
2022-12-06T09:55:34.038Z,97989.31
2022-12-06T09:59:22.146Z,97879.66
2022-12-06T10:03:18.492Z,97955.53
2022-12-06T10:06:46.579Z,97928.94
2022-12-06T10:10:21.123Z,97929.75
2022-12-06T10:13:59.418Z,97958.41
2022-12-06T10:17:31.735Z,97938.84
2022-12-06T10:20:54.466Z,97978.47
2022-12-06T10:24:24.065Z,97941.97
2022-12-06T10:28:00.744Z,97942.31
2022-12-06T10:32:19.526Z,97934.13
2022-12-06T10:35:58.282Z,97933.03
2022-12-06T10:39:48.639Z,97867.97
2022-12-06T10:43:37.610Z,97963.56
2022-12-06T10:47:23.758Z,97921.09
2022-12-06T10:52:03.478Z,97928.41
2022-12-06T10:55:44.149Z,97854.91
2022-12-06T10:59:09.335Z,97927.31
2022-12-06T11:03:01.113Z,97891.97
2022-12-06T11:07:06.741Z,97875.81
2022-12-06T11:10:38.747Z,97942.75
2022-12-06T11:14:26.444Z,97890.44
2022-12-06T11:17:51.091Z,97907.63
2022-12-06T11:21:25.658Z,97931.38
2022-12-06T11:25:13.926Z,97894.09
2022-12-06T11:29:04.605Z,97875.22
2022-12-06T11:32:24.060Z,97888.00
2022-12-06T11:35:32.885Z,97952.44
2022-12-06T11:38:47.134Z,97882.44
2022-12-06T11:42:04.909Z,97849.28
2022-12-06T11:45:29.018Z,97918.31
2022-12-06T11:48:43.867Z,97814.72
2022-12-06T11:51:53.107Z,97892.53
2022-12-06T11:55:08.946Z,97912.22
2022-12-06T11:58:29.413Z,97882.88
2022-12-06T12:01:50.694Z,97899.63
2022-12-06T12:04:56.860Z,97901.81
2022-12-06T12:08:20.166Z,97872.03
2022-12-06T12:11:33.149Z,97914.47
2022-12-06T12:14:51.032Z,97840.22
2022-12-06T12:18:08.036Z,97823.28
2022-12-06T12:21:17.378Z,97890.91
2022-12-06T12:25:17.797Z,97867.38
2022-12-06T12:28:29.901Z,97848.84
2022-12-06T12:31:36.231Z,97839.16
2022-12-06T12:34:48.298Z,97793.44
2022-12-06T12:38:00.372Z,97862.00
2022-12-06T12:41:29.481Z,97845.06
2022-12-06T12:44:43.287Z,97892.25
2022-12-06T12:48:06.281Z,97855.16
2022-12-06T12:51:35.779Z,97929.84
2022-12-06T12:54:44.079Z,97839.19
2022-12-06T12:57:55.641Z,97875.28
2022-12-06T13:01:25.538Z,97777.53
2022-12-06T13:05:17.235Z,97810.00
2022-12-06T13:08:37.921Z,97850.13
2022-12-06T13:11:57.290Z,97852.97
2022-12-06T13:15:30.464Z,97923.44
2022-12-06T13:18:55.495Z,97857.22
2022-12-06T13:22:31.453Z,97843.81
2022-12-06T13:25:49.755Z,97828.50
2022-12-06T13:29:02.848Z,97851.97
2022-12-06T13:35:56.241Z,97887.63
2022-12-06T13:39:44.901Z,97782.28
2022-12-06T13:43:02.963Z,97826.88
2022-12-06T13:46:38.132Z,97827.81
2022-12-06T13:49:59.080Z,97765.75
2022-12-06T14:23:26.310Z,97779.84
2022-12-06T14:55:26.824Z,97811.72
2022-12-06T15:53:29.991Z,97855.84
2022-12-06T15:56:38.337Z,97857.22
2022-12-06T16:43:17.174Z,97841.97
2022-12-06T16:46:32.867Z,97864.34
2022-12-06T16:49:46.488Z,97866.13
2022-12-06T16:52:55.736Z,97899.19
2022-12-06T16:56:02.209Z,97940.16
2022-12-06T16:59:08.963Z,97893.72
2022-12-06T17:02:47.569Z,97818.22
2022-12-06T18:17:27.981Z,97823.63
